Time;durP1;ratioP1;P1;durP2;ratioP2;P2;SDS_P1;SDS_P2;PMS_P1;PMS_P2;Temp;Humidity;BMP_temperature;BMP_pressure;BME280_temperature;BME280_humidity;BME280_pressure;Samples;Min_cycle;Max_cycle;Signal;HPM_P1;HPM_P2
2021/04/10 00:02:30;;;;;;;16.00;7.60;;;;;;;9.02;55.86;101438.31;5020720;28;20553;-77
2021/04/10 00:05:16;;;;;;;16.33;7.32;;;;;;;9.19;55.23;101452.25;5023619;28;20068;-77
2021/04/10 00:08:02;;;;;;;19.95;6.80;;;;;;;9.10;55.66;101443.09;5023142;28;20048;-77
2021/04/10 00:10:46;;;;;;;20.85;8.48;;;;;;;8.96;55.87;101440.28;5022288;28;20061;-78
2021/04/10 00:13:31;;;;;;;14.48;7.55;;;;;;;8.99;55.64;101438.88;5026388;28;20085;-78
2021/04/10 00:16:16;;;;;;;11.18;6.72;;;;;;;9.10;55.48;101437.69;5024128;28;20049;-77
2021/04/10 00:19:01;;;;;;;17.15;6.50;;;;;;;8.92;56.11;101433.00;5021399;28;20044;-77
2021/04/10 00:21:46;;;;;;;12.38;5.68;;;;;;;8.97;56.25;101425.63;5019244;28;20446;-77
2021/04/10 00:24:31;;;;;;;10.88;5.68;;;;;;;9.02;55.51;101425.56;5025853;28;20052;-77
2021/04/10 00:27:16;;;;;;;11.00;5.90;;;;;;;8.94;56.20;101415.31;5022661;28;20712;-77
2021/04/10 00:30:03;;;;;;;11.68;5.03;;;;;;;9.10;56.19;101420.59;5020933;28;20056;-77
2021/04/10 00:32:47;;;;;;;25.85;7.72;;;;;;;9.14;55.33;101410.78;5027855;28;20044;-77
2021/04/10 00:35:33;;;;;;;11.18;5.95;;;;;;;9.13;55.31;101417.31;5025339;28;20056;-77
2021/04/10 00:38:17;;;;;;;8.18;5.20;;;;;;;9.25;55.49;101406.84;5025550;28;20048;-76
2021/04/10 00:41:07;;;;;;;12.73;6.03;;;;;;;9.28;55.13;101409.81;5026437;28;20045;-77
2021/04/10 00:43:52;;;;;;;15.98;7.78;;;;;;;9.28;54.96;101393.53;5026055;28;20528;-77
2021/04/10 00:46:38;;;;;;;24.10;8.38;;;;;;;9.38;54.68;101393.41;5022645;28;20037;-77
2021/04/10 00:49:23;;;;;;;11.98;6.72;;;;;;;9.26;54.86;101384.84;5028385;28;20057;-77
2021/04/10 00:52:10;;;;;;;16.17;7.57;;;;;;;9.20;54.96;101390.63;5022313;28;20060;-76
2021/04/10 00:54:56;;;;;;;18.52;8.77;;;;;;;9.14;54.90;101391.81;5025987;28;20044;-76
2021/04/10 00:57:41;;;;;;;14.48;6.90;;;;;;;9.04;55.39;101386.50;5028509;28;20036;-77
2021/04/10 01:00:26;;;;;;;15.27;6.65;;;;;;;8.99;55.55;101387.31;5028148;28;20048;-77
2021/04/10 01:03:11;;;;;;;15.02;8.00;;;;;;;8.82;55.79;101385.09;5026070;28;20061;-76
2021/04/10 01:05:57;;;;;;;10.15;5.65;;;;;;;8.91;56.08;101383.34;5029871;28;20044;-76
2021/04/10 01:08:42;;;;;;;10.95;6.07;;;;;;;9.01;55.25;101377.00;5030121;28;20409;-76
2021/04/10 01:11:27;;;;;;;12.35;6.30;;;;;;;9.08;55.13;101380.19;5027764;28;20045;-76
2021/04/10 01:14:37;;;;;;;18.65;8.25;;;;;;;9.08;55.49;101379.38;5029355;28;20045;-77
2021/04/10 01:17:28;;;;;;;15.70;6.88;;;;;;;9.15;55.39;101379.84;5044009;28;20048;-77
2021/04/10 01:20:22;;;;;;;14.95;8.23;;;;;;;9.06;55.74;101379.66;5045673;28;20053;-77
2021/04/10 01:23:53;;;;;;;14.18;7.10;;;;;;;9.16;55.18;101382.25;5027839;28;20044;-77
2021/04/10 01:27:17;;;;;;;14.50;7.47;;;;;;;9.08;55.65;101382.91;5028434;28;20032;-77
2021/04/10 01:30:20;;;;;;;15.25;6.75;;;;;;;9.06;55.52;101387.81;5025175;28;20061;-76
2021/04/10 01:33:16;;;;;;;19.80;7.80;;;;;;;8.99;55.72;101390.84;5030929;28;20044;-77
2021/04/10 01:36:02;;;;;;;11.93;6.82;;;;;;;9.26;55.32;101389.47;5025285;28;20040;-77
2021/04/10 01:38:49;;;;;;;27.85;7.53;;;;;;;9.32;55.05;101388.31;5023664;28;20136;-77
2021/04/10 01:41:35;;;;;;;15.13;7.63;;;;;;;9.19;55.00;101383.59;5025963;28;20417;-77
2021/04/10 01:44:22;;;;;;;13.13;7.13;;;;;;;9.11;55.36;101386.94;5027293;28;20056;-77
2021/04/10 01:47:13;;;;;;;17.58;8.38;;;;;;;8.98;55.60;101397.41;5022609;28;20061;-77
2021/04/10 01:50:02;;;;;;;21.55;7.57;;;;;;;8.74;56.51;101393.81;5027267;28;20053;-77
2021/04/10 01:52:50;;;;;;;15.95;6.75;;;;;;;8.83;56.19;101378.56;5026008;28;20049;-77
2021/04/10 01:55:36;;;;;;;15.88;8.02;;;;;;;8.89;56.09;101387.44;5030569;28;20044;-77
2021/04/10 01:58:23;;;;;;;11.30;7.18;;;;;;;9.11;55.65;101379.59;5026285;28;20060;-77
2021/04/10 02:01:13;;;;;;;13.52;7.18;;;;;;;9.02;55.84;101381.34;5026031;28;20045;-77
2021/04/10 02:03:59;;;;;;;16.67;8.18;;;;;;;8.97;56.57;101374.06;5028746;28;20048;-76
2021/04/10 02:06:47;;;;;;;14.93;8.52;;;;;;;9.15;55.70;101377.13;5028001;28;20060;-77
2021/04/10 02:09:35;;;;;;;13.35;7.60;;;;;;;8.90;56.41;101381.75;5028585;28;20060;-78
2021/04/10 02:12:52;;;;;;;16.95;7.53;;;;;;;8.82;56.89;101376.13;5020607;28;20052;-77
2021/04/10 02:15:52;;;;;;;15.70;7.50;;;;;;;8.87;56.26;101370.66;5025569;28;20040;-77
2021/04/10 02:18:44;;;;;;;13.00;7.97;;;;;;;9.03;56.70;101363.97;5026676;28;20044;-77
2021/04/10 02:21:29;;;;;;;16.80;6.35;;;;;;;8.86;57.00;101360.91;5027732;28;20044;-77
2021/04/10 02:24:14;;;;;;;17.55;6.18;;;;;;;8.77;56.43;101360.72;5026531;28;20064;-77
2021/04/10 02:27:01;;;;;;;15.90;7.45;;;;;;;8.79;56.88;101368.56;5027792;28;20513;-77
2021/04/10 02:29:49;;;;;;;18.40;7.93;;;;;;;8.95;56.42;101351.03;5024708;28;20045;-77
2021/04/10 02:33:00;;;;;;;19.50;7.22;;;;;;;9.08;56.80;101347.66;5025822;28;20052;-77
2021/04/10 02:35:52;;;;;;;14.73;7.88;;;;;;;9.18;56.40;101350.22;5016405;28;20524;-77
2021/04/10 02:38:42;;;;;;;27.45;8.73;;;;;;;9.14;56.21;101346.50;5021818;28;20422;-77
2021/04/10 02:41:28;;;;;;;18.38;8.43;;;;;;;8.97;57.15;101338.00;5023923;28;20060;-77
2021/04/10 02:44:23;;;;;;;12.25;8.00;;;;;;;9.00;56.43;101332.00;5025259;28;20040;-77
2021/04/10 02:47:12;;;;;;;23.23;7.72;;;;;;;8.81;57.02;101325.72;5021047;28;20033;-77
2021/04/10 02:50:01;;;;;;;11.60;7.88;;;;;;;8.73;57.15;101318.22;5027481;28;20048;-77
2021/04/10 02:52:55;;;;;;;23.83;8.23;;;;;;;8.77;57.15;101327.38;5025787;28;20044;-78
2021/04/10 02:55:49;;;;;;;19.25;9.32;;;;;;;8.37;58.13;101323.19;5022207;28;20045;-78
2021/04/10 02:58:39;;;;;;;9.63;6.00;;;;;;;8.44;58.30;101318.22;5025985;28;20041;-77
2021/04/10 03:01:25;;;;;;;18.17;8.55;;;;;;;8.57;57.42;101304.81;5027039;28;20064;-78
2021/04/10 03:04:10;;;;;;;14.70;8.38;;;;;;;8.54;57.72;101299.16;5024668;28;20695;-78
2021/04/10 03:06:57;;;;;;;16.90;8.18;;;;;;;8.54;57.52;101289.13;5027818;28;20047;-78
2021/04/10 03:09:45;;;;;;;19.95;7.95;;;;;;;8.58;57.39;101295.56;5025934;28;20049;-78
2021/04/10 03:12:31;;;;;;;14.85;8.35;;;;;;;8.46;57.39;101288.94;5022007;28;20052;-77
2021/04/10 03:15:18;;;;;;;16.15;7.55;;;;;;;8.64;57.23;101284.69;5029546;28;20055;-78
2021/04/10 03:18:10;;;;;;;18.00;8.02;;;;;;;8.74;57.63;101284.56;5028294;28;20406;-78
2021/04/10 03:21:03;;;;;;;14.77;7.60;;;;;;;8.78;56.35;101280.19;5024574;28;20048;-78
2021/04/10 03:23:49;;;;;;;18.85;7.40;;;;;;;8.75;56.32;101273.44;5027436;28;20056;-78
2021/04/10 03:26:37;;;;;;;16.42;8.07;;;;;;;8.74;55.97;101276.44;5026394;28;20040;-78
2021/04/10 03:29:26;;;;;;;23.83;7.38;;;;;;;8.80;56.70;101284.22;5025912;28;20056;-78
2021/04/10 03:32:12;;;;;;;18.33;8.02;;;;;;;8.80;56.48;101278.78;5019940;28;20045;-78
2021/04/10 03:35:02;;;;;;;11.50;7.50;;;;;;;8.79;56.42;101281.78;5024180;28;20063;-78
2021/04/10 03:37:47;;;;;;;21.23;7.78;;;;;;;8.87;56.28;101283.88;5027818;28;20036;-78
2021/04/10 03:40:38;;;;;;;16.83;7.13;;;;;;;8.89;55.87;101287.91;5025109;28;20417;-78
2021/04/10 03:43:22;;;;;;;;;;;;;;;8.28;57.71;101293.13;5022245;28;20049;-78
2021/04/10 03:46:11;;;;;;;15.85;7.75;;;;;;;8.44;57.81;101288.41;5025943;28;19931;-78
2021/04/10 03:48:57;;;;;;;14.73;7.55;;;;;;;8.60;57.32;101289.88;5023504;28;20525;-78
2021/04/10 03:51:47;;;;;;;17.30;7.70;;;;;;;8.63;57.40;101288.50;5038669;28;20405;-78
2021/04/10 03:54:34;;;;;;;16.17;8.65;;;;;;;8.76;56.71;101288.63;5027995;28;20064;-78
2021/04/10 03:57:19;;;;;;;18.40;8.80;;;;;;;8.85;56.73;101288.78;5026135;28;20513;-78
2021/04/10 04:00:05;;;;;;;13.45;6.18;;;;;;;8.82;56.73;101283.94;5035307;28;20064;-78
2021/04/10 04:03:00;;;;;;;12.75;7.85;;;;;;;8.91;56.40;101291.16;5022072;28;20045;-78
2021/04/10 04:05:45;;;;;;;13.98;6.68;;;;;;;8.91;56.52;101299.28;5024710;28;20064;-78
2021/04/10 04:08:30;;;;;;;10.95;6.07;;;;;;;8.89;56.81;101289.81;5026059;28;20057;-78
2021/04/10 04:11:16;;;;;;;15.20;8.07;;;;;;;8.85;56.67;101297.72;5026077;28;20056;-78
2021/04/10 04:14:01;;;;;;;14.00;5.85;;;;;;;8.94;56.33;101289.75;5027651;28;20052;-79
2021/04/10 04:16:46;;;;;;;17.75;6.22;;;;;;;8.89;56.51;101292.50;5028262;28;20413;-78
2021/04/10 04:19:35;;;;;;;20.20;6.43;;;;;;;9.07;55.94;101290.97;5056249;22;20064;-82
2021/04/10 04:22:20;;;;;;;16.98;8.02;;;;;;;9.11;55.34;101283.84;5043156;28;20044;-81
2021/04/10 04:25:07;;;;;;;21.60;8.15;;;;;;;8.87;56.20;101292.81;5046263;28;20808;-82
2021/04/10 04:27:53;;;;;;;15.80;7.95;;;;;;;8.97;56.16;101306.28;5047936;28;20107;-83
2021/04/10 04:30:38;;;;;;;20.23;6.47;;;;;;;8.92;56.07;101298.19;5043514;28;20417;-82
2021/04/10 04:33:23;;;;;;;9.25;5.88;;;;;;;8.75;56.82;101305.16;5044309;28;20049;-82
2021/04/10 04:36:08;;;;;;;16.85;5.43;;;;;;;8.70;56.73;101306.03;5049011;28;20055;-82
2021/04/10 04:38:53;;;;;;;9.73;5.70;;;;;;;8.81;56.35;101301.31;5044585;28;20523;-82
2021/04/10 04:41:38;;;;;;;13.18;5.80;;;;;;;8.86;56.13;101307.47;5038233;28;20044;-82
2021/04/10 04:44:23;;;;;;;46.78;19.13;;;;;;;8.86;55.79;101304.75;5042599;28;20053;-80
2021/04/10 04:47:08;;;;;;;73.15;32.67;;;;;;;8.71;56.84;101304.94;5047510;28;20049;-84
2021/04/10 04:49:53;;;;;;;56.58;19.95;;;;;;;8.75;56.70;101307.88;5041014;28;20413;-81
2021/04/10 04:52:38;;;;;;;120.82;57.75;;;;;;;8.68;56.81;101310.94;5037696;28;20036;-80
2021/04/10 04:55:23;;;;;;;27.58;17.23;;;;;;;8.58;56.83;101292.88;5044959;28;20046;-82
2021/04/10 04:58:08;;;;;;;16.65;8.02;;;;;;;8.80;56.59;101326.78;5040584;28;20053;-81
2021/04/10 05:00:53;;;;;;;;;;;;;;;8.82;56.60;101321.91;5042514;28;20040;-83
2021/04/10 05:03:37;;;;;;;30.20;11.10;;;;;;;8.98;56.11;101309.78;5041830;28;19916;-83
2021/04/10 05:06:22;;;;;;;22.83;9.77;;;;;;;8.90;56.09;101313.94;5044648;28;20048;-80
2021/04/10 05:09:07;;;;;;;20.17;9.35;;;;;;;8.94;56.79;101328.53;5041786;28;20076;-84
2021/04/10 05:11:52;;;;;;;15.80;8.00;;;;;;;8.83;56.81;101328.94;5045158;28;20527;-83
2021/04/10 05:14:37;;;;;;;13.13;6.93;;;;;;;8.97;56.23;101340.72;5039935;28;20044;-84
2021/04/10 05:17:23;;;;;;;17.25;8.90;;;;;;;9.01;56.25;101345.28;5043366;28;20045;-84
2021/04/10 05:20:08;;;;;;;25.38;10.07;;;;;;;9.09;55.69;101346.56;5039011;28;20048;-83
2021/04/10 05:22:54;;;;;;;19.42;8.43;;;;;;;9.13;56.15;101353.00;5042234;28;20048;-84
2021/04/10 05:25:39;;;;;;;31.50;8.48;;;;;;;9.19;55.62;101345.63;5048351;28;20048;-84
2021/04/10 05:28:24;;;;;;;19.98;7.10;;;;;;;9.34;55.09;101359.00;5044616;28;20520;-83
2021/04/10 05:31:09;;;;;;;12.13;6.38;;;;;;;9.33;55.20;101358.19;5041307;28;20064;-84
2021/04/10 05:33:55;;;;;;;14.50;8.30;;;;;;;9.43;54.74;101358.06;5044841;28;20048;-81
2021/04/10 05:36:39;;;;;;;14.07;5.90;;;;;;;9.51;54.41;101364.72;5039824;28;20127;-83
2021/04/10 05:39:24;;;;;;;18.65;8.73;;;;;;;9.54;54.51;101357.91;5039223;28;20056;-82
2021/04/10 05:42:09;;;;;;;17.27;8.60;;;;;;;9.62;54.05;101373.53;5044876;28;20048;-84
2021/04/10 05:44:55;;;;;;;33.40;7.30;;;;;;;9.64;54.51;101384.94;5041561;28;20048;-83
2021/04/10 05:47:40;;;;;;;40.10;9.57;;;;;;;9.93;54.01;101387.50;5041103;28;20068;-83
2021/04/10 05:50:25;;;;;;;30.00;8.93;;;;;;;9.90;54.38;101397.06;5037769;28;20048;-83
2021/04/10 05:53:11;;;;;;;17.70;6.63;;;;;;;9.68;55.28;101391.38;5037792;28;20116;-82
2021/04/10 05:55:57;;;;;;;45.33;9.43;;;;;;;9.92;54.77;101381.25;5041182;28;20052;-82
2021/04/10 05:58:42;;;;;;;28.98;7.13;;;;;;;9.79;55.26;101393.69;5042809;28;20044;-82
2021/04/10 06:01:27;;;;;;;28.38;8.63;;;;;;;9.62;56.04;101404.22;5039198;28;20048;-83
2021/04/10 06:04:12;;;;;;;26.27;9.25;;;;;;;10.17;54.24;101405.34;5043094;28;20063;-82
2021/04/10 06:06:57;;;;;;;23.98;7.88;;;;;;;10.61;52.58;101401.41;5044665;28;20132;-82
2021/04/10 06:09:42;;;;;;;17.30;9.20;;;;;;;10.11;53.84;101400.25;5047121;28;20417;-81
2021/04/10 06:12:27;;;;;;;28.02;9.00;;;;;;;11.24;51.52;101400.75;5043740;28;20040;-82
2021/04/10 06:15:16;;;;;;;17.45;6.78;;;;;;;11.50;50.53;101407.31;5044675;28;20048;-82
2021/04/10 06:18:02;;;;;;;16.63;7.68;;;;;;;12.18;47.61;101399.00;5049565;28;20055;-81
2021/04/10 06:20:47;;;;;;;18.02;8.32;;;;;;;11.57;48.75;101400.34;5047661;28;20044;-82
2021/04/10 06:23:32;;;;;;;13.05;5.80;;;;;;;11.00;50.49;101409.13;5044479;28;20064;-82
2021/04/10 06:26:17;;;;;;;21.52;8.07;;;;;;;11.27;50.54;101411.88;5051681;28;20048;-82
2021/04/10 06:29:02;;;;;;;12.73;5.97;;;;;;;13.43;44.67;101406.09;5048959;28;20068;-83
2021/04/10 06:31:47;;;;;;;18.55;6.55;;;;;;;17.30;35.98;101398.72;5047421;28;20041;-82
2021/04/10 06:34:31;;;;;;;14.57;6.05;;;;;;;20.15;30.16;101405.97;5046573;28;20048;-84
2021/04/10 06:37:16;;;;;;;19.88;7.55;;;;;;;20.02;29.88;101414.38;5046166;28;20116;-81
2021/04/10 06:40:04;;;;;;;9.63;5.25;;;;;;;19.83;28.65;101410.81;5045176;28;20052;-83
2021/04/10 06:42:48;;;;;;;14.82;6.45;;;;;;;20.83;27.37;101412.47;5049027;28;20052;-83
2021/04/10 06:45:33;;;;;;;10.40;5.55;;;;;;;18.19;31.54;101416.81;5046375;28;20048;-83
2021/04/10 06:48:21;;;;;;;21.92;6.57;;;;;;;19.62;29.51;101422.97;5043370;28;20056;-82
2021/04/10 06:51:07;;;;;;;12.82;7.25;;;;;;;21.62;25.58;101407.09;5044271;28;20044;-83
2021/04/10 06:53:54;;;;;;;20.73;8.15;;;;;;;22.68;23.67;101413.19;5056825;28;20048;-84
2021/04/10 06:56:46;;;;;;;24.35;10.00;;;;;;;22.94;23.56;101406.72;5054017;28;20536;-83
2021/04/10 06:59:49;;;;;;;22.92;10.35;;;;;;;24.43;21.29;101418.81;5056252;28;20509;-83
2021/04/10 07:02:35;;;;;;;20.83;11.30;;;;;;;20.91;26.53;101399.56;5051603;28;20037;-83
2021/04/10 07:05:22;;;;;;;14.93;8.63;;;;;;;20.52;26.97;101398.06;5048977;28;20041;-83
2021/04/10 07:08:07;;;;;;;;;;;;;;;22.06;23.78;101406.50;5054414;28;20274;-83
2021/04/10 07:10:52;;;;;;;23.92;4.85;;;;;;;24.75;19.77;101402.19;5048802;28;19912;-83
2021/04/10 07:13:37;;;;;;;16.67;4.43;;;;;;;24.93;19.47;101403.84;5051026;28;20044;-84
2021/04/10 07:16:24;;;;;;;9.88;4.65;;;;;;;26.83;17.82;101398.91;5051831;28;20195;-81
2021/04/10 07:19:13;;;;;;;13.77;4.47;;;;;;;26.55;17.69;101415.84;5060477;28;20043;-83
2021/04/10 07:22:15;;;;;;;7.85;4.22;;;;;;;26.13;17.69;101400.09;5057969;28;20044;-79
2021/04/10 07:25:00;;;;;;;7.93;4.13;;;;;;;27.10;17.00;101406.72;5057001;28;20044;-81
2021/04/10 07:27:45;;;;;;;12.35;4.22;;;;;;;27.87;16.51;101410.78;5060353;28;20047;-83
2021/04/10 07:31:00;;;;;;;14.38;4.50;;;;;;;25.61;19.01;101395.47;5057782;28;20056;-83
2021/04/10 07:33:58;;;;;;;14.45;4.05;;;;;;;28.47;16.23;101403.66;5055153;28;20052;-82
2021/04/10 07:36:43;;;;;;;11.30;4.20;;;;;;;27.11;17.33;101397.94;5057788;28;20035;-82
2021/04/10 07:39:44;;;;;;;12.00;4.50;;;;;;;27.57;17.00;101396.75;5059640;28;20052;-83
2021/04/10 07:42:29;;;;;;;12.27;4.50;;;;;;;28.47;15.49;101403.66;5056982;28;20044;-83
2021/04/10 07:45:32;;;;;;;12.40;4.00;;;;;;;27.73;15.96;101401.78;5045890;28;20453;-78
2021/04/10 07:48:18;;;;;;;14.73;4.55;;;;;;;30.25;14.53;101407.78;5045046;28;20049;-78
2021/04/10 07:51:12;;;;;;;11.45;3.67;;;;;;;27.97;16.46;101409.88;5041319;28;20142;-78
2021/04/10 07:53:59;;;;;;;11.57;4.38;;;;;;;27.35;17.03;101407.28;5046887;28;20417;-77
2021/04/10 07:57:03;;;;;;;12.65;3.85;;;;;;;28.63;15.91;101406.63;5044060;28;20108;-78
2021/04/10 07:59:49;;;;;;;328.08;19.77;;;;;;;31.40;13.87;101413.88;5045919;28;20037;-77
2021/04/10 08:02:35;;;;;;;12.70;4.25;;;;;;;31.16;13.93;101406.91;5045725;28;20044;-76
2021/04/10 08:05:23;;;;;;;9.70;4.57;;;;;;;32.68;12.55;101410.25;5043853;28;20095;-77
2021/04/10 08:08:09;;;;;;;13.02;3.90;;;;;;;31.21;14.03;101409.16;5047892;28;20044;-75
2021/04/10 08:11:02;;;;;;;13.13;4.03;;;;;;;32.64;12.31;101416.00;5043863;28;20036;-76
2021/04/10 08:13:58;;;;;;;15.18;4.75;;;;;;;28.26;16.27;101420.72;5042054;28;20052;-76
2021/04/10 08:16:45;;;;;;;9.57;4.38;;;;;;;25.14;19.59;101401.06;5046512;28;20036;-76
2021/04/10 08:19:32;;;;;;;9.25;4.97;;;;;;;25.25;19.14;101409.41;5043355;28;20067;-77
2021/04/10 08:22:21;;;;;;;14.35;4.55;;;;;;;28.17;16.14;101409.25;5043401;28;20067;-76
2021/04/10 08:25:08;;;;;;;11.23;4.70;;;;;;;29.89;15.04;101421.75;5045079;28;20053;-78
2021/04/10 08:27:55;;;;;;;13.98;5.30;;;;;;;30.59;13.94;101419.47;5045387;28;20536;-76
2021/04/10 08:30:41;;;;;;;8.95;4.47;;;;;;;32.43;12.52;101429.94;5039102;28;20045;-76
2021/04/10 08:33:27;;;;;;;11.48;5.22;;;;;;;31.69;13.44;101421.59;5044213;28;20053;-76
2021/04/10 08:36:12;;;;;;;11.82;5.40;;;;;;;30.82;13.78;101420.56;5044734;28;20040;-76
2021/04/10 08:38:58;;;;;;;17.40;5.13;;;;;;;32.10;13.44;101421.59;5044906;28;20045;-76
2021/04/10 08:41:47;;;;;;;14.82;5.50;;;;;;;31.66;13.73;101419.66;5049630;28;20048;-76
2021/04/10 08:44:34;;;;;;;12.57;5.47;;;;;;;34.31;11.93;101421.50;5043714;28;20052;-80
2021/04/10 08:47:20;;;;;;;21.20;5.60;;;;;;;31.83;13.95;101418.41;5042776;28;20055;-76
2021/04/10 08:50:09;;;;;;;29.92;5.25;;;;;;;32.00;12.93;101411.44;5044627;28;20052;-77
2021/04/10 08:52:54;;;;;;;22.98;5.60;;;;;;;32.65;12.10;101426.03;5043911;28;20052;-76
2021/04/10 08:55:40;;;;;;;13.98;4.75;;;;;;;33.08;12.92;101416.19;5042858;28;20120;-76
2021/04/10 08:58:30;;;;;;;8.70;4.95;;;;;;;28.05;16.80;101421.75;5049407;28;20044;-77
2021/04/10 09:01:22;;;;;;;12.88;6.20;;;;;;;31.14;14.01;101422.63;5044306;28;20052;-76
2021/04/10 09:04:08;;;;;;;14.23;5.22;;;;;;;29.70;15.48;101414.09;5044710;28;20046;-77
2021/04/10 09:06:52;;;;;;;14.07;4.75;;;;;;;26.52;18.44;101411.06;5059039;28;20044;-77
2021/04/10 09:09:46;;;;;;;21.50;4.95;;;;;;;26.49;18.44;101411.09;5047463;28;20115;-80
2021/04/10 09:12:31;;;;;;;15.45;4.70;;;;;;;24.51;20.60;101401.75;5045597;28;20048;-80
2021/04/10 09:15:16;;;;;;;14.65;5.15;;;;;;;23.01;22.04;101392.91;5050044;28;20420;-82
2021/04/10 09:18:05;;;;;;;9.73;3.90;;;;;;;22.16;22.69;101403.06;5047172;28;20040;-80
2021/04/10 09:20:50;;;;;;;9.93;3.83;;;;;;;21.61;23.48;101391.63;5042284;28;20056;-80
2021/04/10 09:23:35;;;;;;;10.20;3.90;;;;;;;21.24;23.57;101391.47;5048117;28;20052;-82
2021/04/10 09:26:21;;;;;;;10.48;4.15;;;;;;;20.74;24.55;101394.53;5057958;28;20527;-81
2021/04/10 09:29:05;;;;;;;9.55;4.50;;;;;;;20.04;25.12;101389.19;5045289;28;20409;-79
2021/04/10 09:31:55;;;;;;;12.02;3.58;;;;;;;20.00;26.58;101378.06;5046668;28;20049;-82
2021/04/10 09:34:43;;;;;;;9.70;3.20;;;;;;;19.98;26.06;101385.91;5047297;28;20040;-85
2021/04/10 09:37:28;;;;;;;9.13;3.70;;;;;;;19.68;24.46;101387.63;5046198;28;20041;-81
2021/04/10 09:40:20;;;;;;;17.67;4.55;;;;;;;19.64;28.39;101378.47;5042900;28;20040;-81
2021/04/10 09:43:05;;;;;;;8.90;3.40;;;;;;;19.51;26.68;101382.47;5047926;28;20048;-82
2021/04/10 09:45:51;;;;;;;25.25;4.35;;;;;;;19.38;25.03;101373.50;5041592;28;20512;-83
2021/04/10 09:48:46;;;;;;;7.68;3.85;;;;;;;19.50;25.52;101386.44;5044465;28;20412;-80
2021/04/10 09:51:39;;;;;;;7.88;3.85;;;;;;;19.53;25.41;101378.22;5042651;28;20112;-81
2021/04/10 09:54:27;;;;;;;9.07;4.30;;;;;;;19.74;25.26;101366.88;5049461;28;20051;-82
2021/04/10 09:57:17;;;;;;;20.63;5.78;;;;;;;19.45;26.13;101373.72;5041121;28;20041;-80
2021/04/10 10:00:04;;;;;;;10.70;3.78;;;;;;;19.38;25.78;101365.22;5041468;28;20048;-83
2021/04/10 10:02:55;;;;;;;17.17;3.45;;;;;;;19.28;24.39;101363.03;5047199;28;20064;-81
2021/04/10 10:05:45;;;;;;;7.43;3.35;;;;;;;19.44;24.19;101365.75;5045468;28;20051;-82
2021/04/10 10:08:33;;;;;;;16.25;5.13;;;;;;;19.39;26.60;101353.03;5045522;28;20048;-83
2021/04/10 10:11:20;;;;;;;18.88;3.80;;;;;;;19.57;23.76;101358.97;5043163;28;20064;-82
2021/04/10 10:14:05;;;;;;;18.85;6.47;;;;;;;19.49;26.70;101366.31;5042422;28;20056;-83
2021/04/10 10:16:50;;;;;;;11.93;4.88;;;;;;;19.61;26.74;101359.84;5040250;28;20041;-81
2021/04/10 10:19:38;;;;;;;;;;;;;;;19.47;26.61;101349.31;5067274;22;20036;-80
2021/04/10 10:22:27;;;;;;;12.73;4.45;;;;;;;19.50;26.82;101345.03;5030162;28;19920;-77
2021/04/10 10:25:13;;;;;;;16.10;5.90;;;;;;;19.42;27.73;101343.22;5034075;28;20056;-77
2021/04/10 10:27:59;;;;;;;4.60;2.70;;;;;;;19.42;24.33;101341.28;5036047;28;20072;-77
2021/04/10 10:30:45;;;;;;;10.25;4.47;;;;;;;19.54;27.87;101343.97;5031515;28;20052;-78
2021/04/10 10:33:30;;;;;;;12.90;4.43;;;;;;;19.43;27.85;101336.56;5036229;28;20048;-77
2021/04/10 10:36:17;;;;;;;39.05;7.10;;;;;;;19.43;29.31;101340.13;5030023;28;20413;-78
2021/04/10 10:39:05;;;;;;;14.63;4.32;;;;;;;19.48;26.91;101337.13;5030101;28;20056;-78
2021/04/10 10:41:50;;;;;;;11.57;3.60;;;;;;;19.42;24.04;101334.97;5031733;28;20516;-78
2021/04/10 10:44:36;;;;;;;;;;;;;;;19.33;24.12;101328.84;5038190;28;20048;-77
2021/04/10 10:47:25;;;;;;;17.77;4.18;;;;;;;19.50;25.34;101317.47;5034524;28;19917;-77
2021/04/10 10:50:10;;;;;;;13.85;2.97;;;;;;;19.40;25.06;101309.72;5032313;28;20049;-77
2021/04/10 10:53:21;;;;;;;18.25;3.15;;;;;;;19.40;25.14;101316.00;5035432;28;20049;-77
2021/04/10 10:56:13;;;;;;;18.55;3.60;;;;;;;19.37;27.52;101313.97;5033661;28;20060;-77
2021/04/10 10:59:08;;;;;;;9.00;3.30;;;;;;;19.23;29.08;101316.41;5037956;28;20040;-77
2021/04/10 11:01:53;;;;;;;7.53;2.78;;;;;;;19.35;27.03;101315.50;5023088;28;20068;-77
2021/04/10 11:04:39;;;;;;;;;;;;;;;19.33;29.62;101310.34;5032166;28;20064;-77
2021/04/10 11:07:26;;;;;;;11.40;3.33;;;;;;;19.37;29.97;101316.72;5030880;28;19917;-77
2021/04/10 11:10:14;;;;;;;10.05;2.95;;;;;;;19.31;29.16;101311.84;5035043;28;20056;-77
2021/04/10 11:13:00;;;;;;;9.27;3.55;;;;;;;19.32;29.35;101311.50;5029681;28;20044;-77
2021/04/10 11:15:46;;;;;;;23.50;3.35;;;;;;;19.16;26.42;101308.78;5031830;28;20040;-77
2021/04/10 11:18:32;;;;;;;14.00;2.97;;;;;;;19.09;26.46;101311.38;5026663;28;20048;-77
2021/04/10 11:21:32;;;;;;;6.97;2.80;;;;;;;19.04;25.85;101310.84;5033147;28;20060;-77
2021/04/10 11:24:17;;;;;;;6.60;3.08;;;;;;;18.96;25.67;101298.84;5034141;28;20520;-78
2021/04/10 11:27:16;;;;;;;7.20;3.03;;;;;;;18.98;28.73;101293.78;5023428;28;20048;-77
2021/04/10 11:30:09;;;;;;;8.18;3.13;;;;;;;18.99;26.98;101297.34;5032342;28;20048;-77
2021/04/10 11:32:54;;;;;;;16.45;3.33;;;;;;;18.63;27.34;101285.47;5035440;28;20064;-77
2021/04/10 11:35:53;;;;;;;9.57;3.78;;;;;;;18.58;30.42;101285.72;5031793;28;20247;-77
2021/04/10 11:39:06;;;;;;;5.80;2.22;;;;;;;18.53;29.59;101291.47;5030099;28;20509;-77
2021/04/10 11:41:52;;;;;;;6.07;3.20;;;;;;;18.47;27.86;101290.13;5020913;28;20044;-77
2021/04/10 11:44:38;;;;;;;7.43;3.28;;;;;;;18.44;27.29;101279.03;5032506;28;20045;-77
2021/04/10 11:47:27;;;;;;;13.02;2.78;;;;;;;18.45;30.28;101281.41;5031469;28;20048;-77
2021/04/10 11:50:17;;;;;;;6.10;3.00;;;;;;;18.32;30.56;101282.66;5036650;28;20049;-77
2021/04/10 11:53:11;;;;;;;7.85;2.90;;;;;;;18.36;31.45;101292.59;5028849;28;20048;-77
2021/04/10 11:55:58;;;;;;;7.35;3.00;;;;;;;18.32;30.81;101291.72;5035116;28;20056;-77
2021/04/10 11:58:43;;;;;;;8.18;2.85;;;;;;;18.18;29.47;101271.25;5021893;28;20433;-77
2021/04/10 12:01:27;;;;;;;;;;;;;;;18.12;29.99;101276.22;5032166;28;20041;-76
2021/04/10 12:04:12;;;;;;;5.18;2.38;;;;;;;18.18;31.21;101282.28;5026779;28;19914;-77
2021/04/10 12:07:04;;;;;;;;;;;;;;;18.05;32.09;101286.22;5034002;28;20056;-78
2021/04/10 12:09:50;;;;;;;19.85;3.35;;;;;;;18.08;31.82;101282.78;5028959;28;19921;-77
2021/04/10 12:12:35;;;;;;;11.02;2.78;;;;;;;18.01;31.89;101288.09;5028223;28;20049;-78
2021/04/10 12:15:30;;;;;;;;;;;;;;;17.98;32.18;101286.06;5033720;28;20056;-78
2021/04/10 12:18:16;;;;;;;5.07;2.65;;;;;;;17.97;31.57;101282.50;5025806;28;19913;-78
2021/04/10 12:21:01;;;;;;;8.05;3.08;;;;;;;17.97;32.36;101282.50;5032353;28;20044;-78
2021/04/10 12:23:46;;;;;;;10.20;3.17;;;;;;;17.95;32.12;101279.28;5016138;28;20049;-78
2021/04/10 12:26:33;;;;;;;7.38;2.97;;;;;;;17.93;32.73;101279.63;5013456;28;20053;-77
2021/04/10 12:29:18;;;;;;;6.82;3.00;;;;;;;17.95;32.91;101274.59;5016959;28;20053;-77
2021/04/10 12:32:03;;;;;;;10.77;3.10;;;;;;;17.82;32.74;101266.75;5017169;28;20048;-77
2021/04/10 12:34:47;;;;;;;7.07;2.75;;;;;;;17.75;32.60;101269.28;5022684;28;20087;-77
2021/04/10 12:37:32;;;;;;;;;;;;;;;17.84;32.82;101261.66;5039826;28;20048;-78
2021/04/10 12:40:18;;;;;;;7.90;3.05;;;;;;;17.86;33.49;101257.44;5035942;28;20385;-77
2021/04/10 12:43:03;;;;;;;14.13;3.38;;;;;;;17.94;33.56;101263.91;5033639;28;20064;-76
2021/04/10 12:45:48;;;;;;;7.20;2.60;;;;;;;17.93;33.28;101268.63;5039137;28;20044;-77
2021/04/10 12:48:33;;;;;;;7.15;2.78;;;;;;;17.91;34.07;101267.38;5034080;28;20052;-77
2021/04/10 12:51:18;;;;;;;;;;;;;;;17.83;33.57;101260.06;5035896;28;20057;-78
2021/04/10 12:54:03;;;;;;;5.90;1.58;;;;;;;17.83;35.13;101260.88;5038657;28;19912;-77
2021/04/10 12:56:49;;;;;;;7.93;3.70;;;;;;;17.69;34.89;101259.66;5037338;28;20044;-77
2021/04/10 12:59:34;;;;;;;8.48;2.90;;;;;;;17.75;33.83;101270.09;5035075;28;20056;-76
2021/04/10 13:02:19;;;;;;;8.13;2.60;;;;;;;17.62;34.24;101260.28;5033876;28;20060;-77